sensor_id;sensor_type;location;lat;lon;timestamp;P1;durP1;ratioP1;P2;durP2;ratioP2
63801;SDS011;49949;43.060;25.624;2023-02-18T00:00:02;41.40;;;17.95;;
63801;SDS011;49949;43.060;25.624;2023-02-18T00:03:17;43.53;;;18.15;;
63801;SDS011;49949;43.060;25.624;2023-02-18T00:05:43;53.17;;;20.77;;
63801;SDS011;49949;43.060;25.624;2023-02-18T00:08:12;51.60;;;20.85;;
63801;SDS011;49949;43.060;25.624;2023-02-18T00:11:23;46.28;;;17.17;;
63801;SDS011;49949;43.060;25.624;2023-02-18T00:13:57;40.42;;;16.98;;
63801;SDS011;49949;43.060;25.624;2023-02-18T00:16:26;47.33;;;17.95;;
63801;SDS011;49949;43.060;25.624;2023-02-18T00:19:33;44.67;;;18.25;;
63801;SDS011;49949;43.060;25.624;2023-02-18T00:21:59;51.85;;;19.15;;
63801;SDS011;49949;43.060;25.624;2023-02-18T00:28:24;46.03;;;18.15;;
63801;SDS011;49949;43.060;25.624;2023-02-18T00:33:56;37.58;;;17.80;;
63801;SDS011;49949;43.060;25.624;2023-02-18T00:36:28;45.00;;;18.20;;
63801;SDS011;49949;43.060;25.624;2023-02-18T00:39:12;48.08;;;19.08;;
63801;SDS011;49949;43.060;25.624;2023-02-18T00:42:14;56.65;;;19.13;;
63801;SDS011;49949;43.060;25.624;2023-02-18T00:44:43;47.50;;;20.20;;
63801;SDS011;49949;43.060;25.624;2023-02-18T00:47:09;56.13;;;22.23;;
63801;SDS011;49949;43.060;25.624;2023-02-18T00:52:57;60.92;;;21.90;;
63801;SDS011;49949;43.060;25.624;2023-02-18T00:55:23;59.75;;;20.75;;
63801;SDS011;49949;43.060;25.624;2023-02-18T00:57:49;49.35;;;19.85;;
63801;SDS011;49949;43.060;25.624;2023-02-18T01:00:21;54.22;;;18.17;;
63801;SDS011;49949;43.060;25.624;2023-02-18T01:06:06;43.05;;;16.88;;
63801;SDS011;49949;43.060;25.624;2023-02-18T01:08:34;42.50;;;17.50;;
63801;SDS011;49949;43.060;25.624;2023-02-18T01:11:09;52.47;;;18.17;;
63801;SDS011;49949;43.060;25.624;2023-02-18T01:13:58;43.67;;;16.70;;
63801;SDS011;49949;43.060;25.624;2023-02-18T01:16:24;44.10;;;17.35;;
63801;SDS011;49949;43.060;25.624;2023-02-18T01:22:45;41.90;;;19.50;;
63801;SDS011;49949;43.060;25.624;2023-02-18T01:25:16;55.65;;;19.98;;
63801;SDS011;49949;43.060;25.624;2023-02-18T01:27:50;48.15;;;20.60;;
63801;SDS011;49949;43.060;25.624;2023-02-18T01:31:09;53.38;;;18.70;;
63801;SDS011;49949;43.060;25.624;2023-02-18T01:33:49;44.47;;;18.00;;
63801;SDS011;49949;43.060;25.624;2023-02-18T01:36:15;40.08;;;18.90;;
63801;SDS011;49949;43.060;25.624;2023-02-18T01:38:52;49.88;;;19.30;;
63801;SDS011;49949;43.060;25.624;2023-02-18T01:47:16;48.75;;;20.27;;
63801;SDS011;49949;43.060;25.624;2023-02-18T01:49:52;48.97;;;20.55;;
63801;SDS011;49949;43.060;25.624;2023-02-18T01:52:59;57.05;;;23.20;;
63801;SDS011;49949;43.060;25.624;2023-02-18T01:55:33;72.28;;;25.98;;
63801;SDS011;49949;43.060;25.624;2023-02-18T02:04:02;52.42;;;21.08;;
63801;SDS011;49949;43.060;25.624;2023-02-18T02:06:37;48.42;;;20.85;;
63801;SDS011;49949;43.060;25.624;2023-02-18T02:09:20;53.35;;;22.83;;
63801;SDS011;49949;43.060;25.624;2023-02-18T02:14:52;54.70;;;22.15;;
63801;SDS011;49949;43.060;25.624;2023-02-18T02:32:31;59.33;;;21.45;;
63801;SDS011;49949;43.060;25.624;2023-02-18T02:52:43;56.03;;;22.35;;
63801;SDS011;49949;43.060;25.624;2023-02-18T02:55:19;54.22;;;21.95;;
63801;SDS011;49949;43.060;25.624;2023-02-18T03:00:14;55.55;;;22.67;;
63801;SDS011;49949;43.060;25.624;2023-02-18T03:09:15;47.63;;;22.42;;
63801;SDS011;49949;43.060;25.624;2023-02-18T03:12:07;53.58;;;22.98;;
63801;SDS011;49949;43.060;25.624;2023-02-18T03:17:59;59.55;;;23.52;;
63801;SDS011;49949;43.060;25.624;2023-02-18T03:20:54;67.68;;;26.73;;
63801;SDS011;49949;43.060;25.624;2023-02-18T03:24:37;56.72;;;23.73;;
63801;SDS011;49949;43.060;25.624;2023-02-18T03:28:06;50.17;;;21.60;;
63801;SDS011;49949;43.060;25.624;2023-02-18T03:30:43;64.20;;;23.30;;
63801;SDS011;49949;43.060;25.624;2023-02-18T03:33:19;59.22;;;23.92;;
63801;SDS011;49949;43.060;25.624;2023-02-18T03:35:58;60.20;;;24.40;;
63801;SDS011;49949;43.060;25.624;2023-02-18T03:44:50;54.97;;;21.33;;
63801;SDS011;49949;43.060;25.624;2023-02-18T03:47:16;60.00;;;23.63;;
63801;SDS011;49949;43.060;25.624;2023-02-18T03:49:53;56.25;;;24.27;;
63801;SDS011;49949;43.060;25.624;2023-02-18T03:52:21;63.28;;;23.60;;
63801;SDS011;49949;43.060;25.624;2023-02-18T03:54:47;235.95;;;100.10;;
63801;SDS011;49949;43.060;25.624;2023-02-18T03:57:14;60.70;;;24.55;;
63801;SDS011;49949;43.060;25.624;2023-02-18T03:59:43;298.45;;;113.03;;
63801;SDS011;49949;43.060;25.624;2023-02-18T04:05:14;59.20;;;23.77;;
63801;SDS011;49949;43.060;25.624;2023-02-18T04:10:22;54.50;;;24.92;;
63801;SDS011;49949;43.060;25.624;2023-02-18T04:12:48;52.20;;;25.15;;
63801;SDS011;49949;43.060;25.624;2023-02-18T04:15:14;56.20;;;22.33;;
63801;SDS011;49949;43.060;25.624;2023-02-18T04:17:40;60.70;;;25.25;;
63801;SDS011;49949;43.060;25.624;2023-02-18T04:20:19;56.10;;;24.10;;
63801;SDS011;49949;43.060;25.624;2023-02-18T04:23:43;51.83;;;22.20;;
63801;SDS011;49949;43.060;25.624;2023-02-18T04:26:42;77.45;;;29.45;;
63801;SDS011;49949;43.060;25.624;2023-02-18T04:29:12;69.70;;;25.98;;
63801;SDS011;49949;43.060;25.624;2023-02-18T04:31:56;68.70;;;28.23;;
63801;SDS011;49949;43.060;25.624;2023-02-18T04:34:29;61.63;;;23.98;;
63801;SDS011;49949;43.060;25.624;2023-02-18T04:36:55;67.72;;;24.67;;
63801;SDS011;49949;43.060;25.624;2023-02-18T04:39:37;55.90;;;23.95;;
63801;SDS011;49949;43.060;25.624;2023-02-18T04:42:57;54.23;;;23.60;;
63801;SDS011;49949;43.060;25.624;2023-02-18T04:45:29;63.35;;;24.40;;
63801;SDS011;49949;43.060;25.624;2023-02-18T04:51:44;71.70;;;25.83;;
63801;SDS011;49949;43.060;25.624;2023-02-18T04:54:12;68.45;;;26.33;;
63801;SDS011;49949;43.060;25.624;2023-02-18T04:56:47;74.40;;;28.48;;
63801;SDS011;49949;43.060;25.624;2023-02-18T05:04:56;77.18;;;28.65;;
63801;SDS011;49949;43.060;25.624;2023-02-18T05:07:24;63.80;;;26.52;;
63801;SDS011;49949;43.060;25.624;2023-02-18T05:09:51;63.05;;;25.30;;
63801;SDS011;49949;43.060;25.624;2023-02-18T05:12:18;83.13;;;27.55;;
63801;SDS011;49949;43.060;25.624;2023-02-18T05:14:44;66.53;;;24.95;;
63801;SDS011;49949;43.060;25.624;2023-02-18T05:17:10;57.63;;;23.63;;
63801;SDS011;49949;43.060;25.624;2023-02-18T05:19:37;60.45;;;24.25;;
63801;SDS011;49949;43.060;25.624;2023-02-18T05:25:26;59.25;;;25.55;;
63801;SDS011;49949;43.060;25.624;2023-02-18T05:31:14;75.35;;;25.08;;
63801;SDS011;49949;43.060;25.624;2023-02-18T05:37:02;76.18;;;27.05;;
63801;SDS011;49949;43.060;25.624;2023-02-18T05:39:29;65.82;;;25.67;;
63801;SDS011;49949;43.060;25.624;2023-02-18T05:41:55;71.78;;;26.15;;
63801;SDS011;49949;43.060;25.624;2023-02-18T05:44:21;58.92;;;24.23;;
63801;SDS011;49949;43.060;25.624;2023-02-18T05:49:57;69.13;;;26.70;;
63801;SDS011;49949;43.060;25.624;2023-02-18T05:52:23;65.57;;;26.08;;
63801;SDS011;49949;43.060;25.624;2023-02-18T05:57:50;59.83;;;25.25;;
63801;SDS011;49949;43.060;25.624;2023-02-18T06:08:49;88.18;;;28.33;;
63801;SDS011;49949;43.060;25.624;2023-02-18T06:14:11;73.90;;;26.33;;
63801;SDS011;49949;43.060;25.624;2023-02-18T06:16:38;65.82;;;26.33;;
63801;SDS011;49949;43.060;25.624;2023-02-18T06:19:04;69.40;;;27.85;;
63801;SDS011;49949;43.060;25.624;2023-02-18T06:24:50;79.88;;;27.17;;
63801;SDS011;49949;43.060;25.624;2023-02-18T06:27:34;68.20;;;26.95;;
63801;SDS011;49949;43.060;25.624;2023-02-18T06:30:21;75.63;;;29.05;;
63801;SDS011;49949;43.060;25.624;2023-02-18T06:32:47;66.57;;;25.92;;
63801;SDS011;49949;43.060;25.624;2023-02-18T06:35:14;75.60;;;30.60;;
63801;SDS011;49949;43.060;25.624;2023-02-18T06:38:01;73.13;;;31.23;;
63801;SDS011;49949;43.060;25.624;2023-02-18T06:46:41;60.60;;;26.58;;
63801;SDS011;49949;43.060;25.624;2023-02-18T06:49:10;68.15;;;27.55;;
63801;SDS011;49949;43.060;25.624;2023-02-18T06:52:15;64.22;;;28.48;;
63801;SDS011;49949;43.060;25.624;2023-02-18T06:54:47;75.55;;;30.05;;
63801;SDS011;49949;43.060;25.624;2023-02-18T06:57:25;75.95;;;31.33;;
63801;SDS011;49949;43.060;25.624;2023-02-18T06:59:51;75.95;;;29.48;;
63801;SDS011;49949;43.060;25.624;2023-02-18T07:02:17;69.45;;;30.33;;
63801;SDS011;49949;43.060;25.624;2023-02-18T07:08:16;77.35;;;29.98;;
63801;SDS011;49949;43.060;25.624;2023-02-18T07:10:42;79.60;;;31.00;;
63801;SDS011;49949;43.060;25.624;2023-02-18T07:13:08;94.70;;;32.08;;
63801;SDS011;49949;43.060;25.624;2023-02-18T07:15:35;98.45;;;32.45;;
63801;SDS011;49949;43.060;25.624;2023-02-18T07:18:33;111.05;;;32.33;;
63801;SDS011;49949;43.060;25.624;2023-02-18T07:21:15;118.53;;;35.35;;
63801;SDS011;49949;43.060;25.624;2023-02-18T07:24:11;103.72;;;34.53;;
63801;SDS011;49949;43.060;25.624;2023-02-18T07:30:27;99.43;;;32.35;;
63801;SDS011;49949;43.060;25.624;2023-02-18T07:33:25;95.40;;;33.28;;
63801;SDS011;49949;43.060;25.624;2023-02-18T07:35:59;94.25;;;32.72;;
63801;SDS011;49949;43.060;25.624;2023-02-18T07:38:41;101.38;;;32.28;;
63801;SDS011;49949;43.060;25.624;2023-02-18T07:41:27;119.75;;;34.47;;
63801;SDS011;49949;43.060;25.624;2023-02-18T07:44:44;93.57;;;33.17;;
63801;SDS011;49949;43.060;25.624;2023-02-18T07:47:12;104.55;;;33.22;;
63801;SDS011;49949;43.060;25.624;2023-02-18T07:49:43;82.20;;;30.63;;
63801;SDS011;49949;43.060;25.624;2023-02-18T07:52:11;85.70;;;32.33;;
63801;SDS011;49949;43.060;25.624;2023-02-18T08:00:25;95.38;;;33.30;;
63801;SDS011;49949;43.060;25.624;2023-02-18T08:03:01;76.10;;;31.90;;
63801;SDS011;49949;43.060;25.624;2023-02-18T08:05:54;95.68;;;35.25;;
63801;SDS011;49949;43.060;25.624;2023-02-18T08:08:37;112.20;;;40.00;;
63801;SDS011;49949;43.060;25.624;2023-02-18T08:11:16;109.28;;;38.20;;
63801;SDS011;49949;43.060;25.624;2023-02-18T08:13:44;114.05;;;34.42;;
63801;SDS011;49949;43.060;25.624;2023-02-18T08:19:49;111.55;;;38.22;;
63801;SDS011;49949;43.060;25.624;2023-02-18T08:25:08;95.35;;;35.40;;
63801;SDS011;49949;43.060;25.624;2023-02-18T08:27:41;75.80;;;32.60;;
63801;SDS011;49949;43.060;25.624;2023-02-18T08:30:16;78.22;;;30.77;;
63801;SDS011;49949;43.060;25.624;2023-02-18T08:32:58;75.95;;;33.03;;
63801;SDS011;49949;43.060;25.624;2023-02-18T08:35:23;77.00;;;32.38;;
63801;SDS011;49949;43.060;25.624;2023-02-18T08:37:49;69.47;;;31.40;;
63801;SDS011;49949;43.060;25.624;2023-02-18T08:40:30;61.10;;;29.60;;
63801;SDS011;49949;43.060;25.624;2023-02-18T08:42:59;90.10;;;33.72;;
63801;SDS011;49949;43.060;25.624;2023-02-18T08:45:30;92.50;;;33.17;;
63801;SDS011;49949;43.060;25.624;2023-02-18T08:48:09;80.18;;;30.65;;
63801;SDS011;49949;43.060;25.624;2023-02-18T08:50:36;68.85;;;27.52;;
63801;SDS011;49949;43.060;25.624;2023-02-18T08:56:24;67.15;;;31.52;;
63801;SDS011;49949;43.060;25.624;2023-02-18T08:58:55;68.55;;;29.33;;
63801;SDS011;49949;43.060;25.624;2023-02-18T09:01:25;75.25;;;29.17;;
63801;SDS011;49949;43.060;25.624;2023-02-18T09:03:51;87.88;;;29.88;;
63801;SDS011;49949;43.060;25.624;2023-02-18T09:06:16;61.83;;;27.48;;
63801;SDS011;49949;43.060;25.624;2023-02-18T09:08:42;69.88;;;28.92;;
63801;SDS011;49949;43.060;25.624;2023-02-18T09:11:16;73.43;;;29.67;;
63801;SDS011;49949;43.060;25.624;2023-02-18T09:13:45;183.07;;;34.03;;
63801;SDS011;49949;43.060;25.624;2023-02-18T09:16:15;277.50;;;38.88;;
63801;SDS011;49949;43.060;25.624;2023-02-18T09:18:46;174.70;;;34.08;;
63801;SDS011;49949;43.060;25.624;2023-02-18T09:21:15;140.82;;;33.67;;
63801;SDS011;49949;43.060;25.624;2023-02-18T09:23:50;113.10;;;31.48;;
63801;SDS011;49949;43.060;25.624;2023-02-18T09:26:16;110.63;;;33.80;;
63801;SDS011;49949;43.060;25.624;2023-02-18T09:31:53;90.70;;;34.72;;
63801;SDS011;49949;43.060;25.624;2023-02-18T09:34:19;79.88;;;34.97;;
63801;SDS011;49949;43.060;25.624;2023-02-18T09:36:45;108.57;;;38.75;;
63801;SDS011;49949;43.060;25.624;2023-02-18T09:39:11;80.85;;;23.73;;
63801;SDS011;49949;43.060;25.624;2023-02-18T09:41:44;48.70;;;12.60;;
63801;SDS011;49949;43.060;25.624;2023-02-18T09:44:26;120.85;;;44.40;;
63801;SDS011;49949;43.060;25.624;2023-02-18T09:47:03;40.28;;;15.73;;
63801;SDS011;49949;43.060;25.624;2023-02-18T09:52:43;40.55;;;15.00;;
63801;SDS011;49949;43.060;25.624;2023-02-18T09:55:17;27.80;;;11.50;;
63801;SDS011;49949;43.060;25.624;2023-02-18T09:57:47;28.35;;;12.32;;
63801;SDS011;49949;43.060;25.624;2023-02-18T10:00:39;20.77;;;5.30;;
63801;SDS011;49949;43.060;25.624;2023-02-18T10:03:21;23.85;;;3.15;;
63801;SDS011;49949;43.060;25.624;2023-02-18T10:08:32;29.35;;;3.67;;
63801;SDS011;49949;43.060;25.624;2023-02-18T10:11:11;11.52;;;2.92;;
63801;SDS011;49949;43.060;25.624;2023-02-18T10:13:58;18.58;;;3.60;;
63801;SDS011;49949;43.060;25.624;2023-02-18T10:16:36;30.40;;;2.97;;
63801;SDS011;49949;43.060;25.624;2023-02-18T10:19:03;16.27;;;2.50;;
63801;SDS011;49949;43.060;25.624;2023-02-18T10:22:03;79.95;;;5.70;;
63801;SDS011;49949;43.060;25.624;2023-02-18T10:27:34;45.65;;;5.50;;
63801;SDS011;49949;43.060;25.624;2023-02-18T10:46:26;23.95;;;7.07;;
63801;SDS011;49949;43.060;25.624;2023-02-18T10:51:52;18.60;;;7.53;;
63801;SDS011;49949;43.060;25.624;2023-02-18T10:54:25;48.30;;;15.55;;
63801;SDS011;49949;43.060;25.624;2023-02-18T10:57:19;25.50;;;8.27;;
63801;SDS011;49949;43.060;25.624;2023-02-18T11:03:39;50.72;;;10.10;;
63801;SDS011;49949;43.060;25.624;2023-02-18T11:06:24;75.65;;;7.78;;
63801;SDS011;49949;43.060;25.624;2023-02-18T11:09:03;37.67;;;5.55;;
63801;SDS011;49949;43.060;25.624;2023-02-18T11:11:37;40.35;;;17.75;;
63801;SDS011;49949;43.060;25.624;2023-02-18T11:14:05;42.28;;;18.88;;
63801;SDS011;49949;43.060;25.624;2023-02-18T11:16:43;62.15;;;19.10;;
63801;SDS011;49949;43.060;25.624;2023-02-18T11:19:35;32.13;;;9.43;;
63801;SDS011;49949;43.060;25.624;2023-02-18T11:26:16;48.85;;;11.80;;
63801;SDS011;49949;43.060;25.624;2023-02-18T11:28:51;92.90;;;25.98;;
63801;SDS011;49949;43.060;25.624;2023-02-18T11:31:38;45.92;;;15.63;;
63801;SDS011;49949;43.060;25.624;2023-02-18T11:34:19;47.38;;;12.52;;
63801;SDS011;49949;43.060;25.624;2023-02-18T11:36:47;36.40;;;4.72;;
63801;SDS011;49949;43.060;25.624;2023-02-18T11:39:26;375.23;;;31.67;;
63801;SDS011;49949;43.060;25.624;2023-02-18T11:41:57;40.50;;;14.00;;
63801;SDS011;49949;43.060;25.624;2023-02-18T11:49:41;49.03;;;26.58;;
63801;SDS011;49949;43.060;25.624;2023-02-18T11:57:33;49.85;;;22.55;;
63801;SDS011;49949;43.060;25.624;2023-02-18T12:00:22;55.53;;;21.95;;
63801;SDS011;49949;43.060;25.624;2023-02-18T12:02:54;43.45;;;6.13;;
63801;SDS011;49949;43.060;25.624;2023-02-18T12:05:24;53.13;;;11.93;;
63801;SDS011;49949;43.060;25.624;2023-02-18T12:10:38;40.30;;;17.58;;
63801;SDS011;49949;43.060;25.624;2023-02-18T12:15:52;38.97;;;9.07;;
63801;SDS011;49949;43.060;25.624;2023-02-18T12:23:56;29.35;;;5.70;;
63801;SDS011;49949;43.060;25.624;2023-02-18T12:32:01;10.13;;;4.65;;
63801;SDS011;49949;43.060;25.624;2023-02-18T12:40:29;44.88;;;8.85;;
63801;SDS011;49949;43.060;25.624;2023-02-18T12:58:30;39.63;;;12.27;;
63801;SDS011;49949;43.060;25.624;2023-02-18T13:10:04;40.10;;;16.17;;
63801;SDS011;49949;43.060;25.624;2023-02-18T13:12:42;52.83;;;8.52;;
63801;SDS011;49949;43.060;25.624;2023-02-18T13:15:42;21.10;;;7.40;;
63801;SDS011;49949;43.060;25.624;2023-02-18T13:18:39;30.85;;;7.72;;
63801;SDS011;49949;43.060;25.624;2023-02-18T13:21:26;15.75;;;3.72;;
63801;SDS011;49949;43.060;25.624;2023-02-18T13:24:25;23.25;;;8.07;;
63801;SDS011;49949;43.060;25.624;2023-02-18T13:29:50;40.00;;;3.05;;
63801;SDS011;49949;43.060;25.624;2023-02-18T13:41:17;14.57;;;2.67;;
63801;SDS011;49949;43.060;25.624;2023-02-18T13:43:47;7.95;;;1.90;;
63801;SDS011;49949;43.060;25.624;2023-02-18T13:46:16;8.85;;;2.35;;
63801;SDS011;49949;43.060;25.624;2023-02-18T13:49:44;8.07;;;1.58;;
63801;SDS011;49949;43.060;25.624;2023-02-18T13:52:15;12.38;;;1.50;;
63801;SDS011;49949;43.060;25.624;2023-02-18T13:54:44;23.35;;;3.20;;
63801;SDS011;49949;43.060;25.624;2023-02-18T13:59:44;9.57;;;1.50;;
63801;SDS011;49949;43.060;25.624;2023-02-18T14:04:52;18.73;;;2.75;;
63801;SDS011;49949;43.060;25.624;2023-02-18T14:07:44;27.48;;;2.13;;
63801;SDS011;49949;43.060;25.624;2023-02-18T14:27:33;5.97;;;1.80;;
63801;SDS011;49949;43.060;25.624;2023-02-18T14:33:11;6.20;;;1.50;;
63801;SDS011;49949;43.060;25.624;2023-02-18T14:35:55;8.05;;;1.33;;
63801;SDS011;49949;43.060;25.624;2023-02-18T14:41:40;2.40;;;1.17;;
63801;SDS011;49949;43.060;25.624;2023-02-18T14:44:29;6.55;;;1.30;;
63801;SDS011;49949;43.060;25.624;2023-02-18T14:50:24;21.90;;;2.17;;
63801;SDS011;49949;43.060;25.624;2023-02-18T14:53:50;13.48;;;1.92;;
63801;SDS011;49949;43.060;25.624;2023-02-18T14:56:36;17.50;;;2.45;;
63801;SDS011;49949;43.060;25.624;2023-02-18T14:59:06;8.30;;;1.60;;
63801;SDS011;49949;43.060;25.624;2023-02-18T15:11:38;2.95;;;1.92;;
63801;SDS011;49949;43.060;25.624;2023-02-18T15:14:15;3.00;;;1.65;;
63801;SDS011;49949;43.060;25.624;2023-02-18T15:16:43;11.30;;;2.92;;
63801;SDS011;49949;43.060;25.624;2023-02-18T15:19:35;11.73;;;2.85;;
63801;SDS011;49949;43.060;25.624;2023-02-18T15:28:27;5.32;;;3.03;;
63801;SDS011;49949;43.060;25.624;2023-02-18T15:30:58;10.38;;;3.22;;
63801;SDS011;49949;43.060;25.624;2023-02-18T15:33:26;4.10;;;2.40;;
63801;SDS011;49949;43.060;25.624;2023-02-18T15:36:00;4.10;;;2.20;;
63801;SDS011;49949;43.060;25.624;2023-02-18T15:44:15;16.65;;;3.35;;
63801;SDS011;49949;43.060;25.624;2023-02-18T15:46:45;12.90;;;4.55;;
63801;SDS011;49949;43.060;25.624;2023-02-18T15:49:13;4.95;;;2.70;;
63801;SDS011;49949;43.060;25.624;2023-02-18T15:55:09;8.38;;;2.67;;
63801;SDS011;49949;43.060;25.624;2023-02-18T15:57:49;8.02;;;2.40;;
63801;SDS011;49949;43.060;25.624;2023-02-18T16:01:04;12.80;;;3.03;;
63801;SDS011;49949;43.060;25.624;2023-02-18T16:03:49;3.95;;;1.90;;
63801;SDS011;49949;43.060;25.624;2023-02-18T16:09:34;8.75;;;2.58;;
63801;SDS011;49949;43.060;25.624;2023-02-18T16:12:30;7.57;;;2.30;;
63801;SDS011;49949;43.060;25.624;2023-02-18T16:14:56;8.50;;;2.00;;
63801;SDS011;49949;43.060;25.624;2023-02-18T16:21:48;4.47;;;2.10;;
63801;SDS011;49949;43.060;25.624;2023-02-18T16:26:55;5.80;;;2.45;;
63801;SDS011;49949;43.060;25.624;2023-02-18T16:29:23;19.50;;;4.80;;
63801;SDS011;49949;43.060;25.624;2023-02-18T16:32:01;9.77;;;3.78;;
63801;SDS011;49949;43.060;25.624;2023-02-18T16:34:27;16.50;;;6.47;;
63801;SDS011;49949;43.060;25.624;2023-02-18T16:36:55;14.52;;;6.40;;
63801;SDS011;49949;43.060;25.624;2023-02-18T16:43:09;11.75;;;4.20;;
63801;SDS011;49949;43.060;25.624;2023-02-18T16:45:45;12.50;;;3.80;;
63801;SDS011;49949;43.060;25.624;2023-02-18T16:48:23;11.68;;;3.97;;
63801;SDS011;49949;43.060;25.624;2023-02-18T16:50:53;13.18;;;4.53;;
63801;SDS011;49949;43.060;25.624;2023-02-18T16:53:19;18.23;;;6.70;;
63801;SDS011;49949;43.060;25.624;2023-02-18T16:55:47;9.85;;;4.32;;
63801;SDS011;49949;43.060;25.624;2023-02-18T16:58:28;15.50;;;4.53;;
63801;SDS011;49949;43.060;25.624;2023-02-18T17:00:54;11.95;;;5.88;;
63801;SDS011;49949;43.060;25.624;2023-02-18T17:03:20;13.45;;;7.07;;
63801;SDS011;49949;43.060;25.624;2023-02-18T17:05:55;20.55;;;6.45;;
63801;SDS011;49949;43.060;25.624;2023-02-18T17:08:34;22.38;;;7.28;;
63801;SDS011;49949;43.060;25.624;2023-02-18T17:14:36;15.23;;;5.22;;
63801;SDS011;49949;43.060;25.624;2023-02-18T17:17:11;12.98;;;6.50;;
63801;SDS011;49949;43.060;25.624;2023-02-18T17:19:40;26.48;;;8.00;;
63801;SDS011;49949;43.060;25.624;2023-02-18T17:22:08;24.40;;;7.78;;
63801;SDS011;49949;43.060;25.624;2023-02-18T17:24:37;15.82;;;6.65;;
63801;SDS011;49949;43.060;25.624;2023-02-18T17:27:16;23.13;;;6.53;;
63801;SDS011;49949;43.060;25.624;2023-02-18T17:29:46;12.13;;;5.85;;
63801;SDS011;49949;43.060;25.624;2023-02-18T17:32:13;11.30;;;5.80;;
63801;SDS011;49949;43.060;25.624;2023-02-18T17:34:55;18.50;;;6.22;;
63801;SDS011;49949;43.060;25.624;2023-02-18T17:37:20;13.30;;;5.95;;
63801;SDS011;49949;43.060;25.624;2023-02-18T17:39:46;11.10;;;5.65;;
63801;SDS011;49949;43.060;25.624;2023-02-18T17:42:25;11.48;;;6.07;;
63801;SDS011;49949;43.060;25.624;2023-02-18T17:45:36;23.20;;;8.93;;
63801;SDS011;49949;43.060;25.624;2023-02-18T17:48:08;10.27;;;6.22;;
63801;SDS011;49949;43.060;25.624;2023-02-18T17:50:35;16.52;;;5.90;;
63801;SDS011;49949;43.060;25.624;2023-02-18T17:53:05;14.88;;;6.30;;
63801;SDS011;49949;43.060;25.624;2023-02-18T17:55:38;12.52;;;5.85;;
63801;SDS011;49949;43.060;25.624;2023-02-18T17:58:05;16.95;;;7.65;;
63801;SDS011;49949;43.060;25.624;2023-02-18T18:00:37;17.58;;;7.00;;
63801;SDS011;49949;43.060;25.624;2023-02-18T18:03:07;21.02;;;7.65;;
63801;SDS011;49949;43.060;25.624;2023-02-18T18:05:43;20.42;;;7.35;;
63801;SDS011;49949;43.060;25.624;2023-02-18T18:08:11;13.52;;;5.82;;
63801;SDS011;49949;43.060;25.624;2023-02-18T18:10:45;12.93;;;4.90;;
63801;SDS011;49949;43.060;25.624;2023-02-18T18:13:21;25.55;;;6.03;;
63801;SDS011;49949;43.060;25.624;2023-02-18T18:15:49;9.98;;;3.72;;
63801;SDS011;49949;43.060;25.624;2023-02-18T18:18:24;13.98;;;3.30;;
63801;SDS011;49949;43.060;25.624;2023-02-18T18:20:58;19.30;;;5.28;;
63801;SDS011;49949;43.060;25.624;2023-02-18T18:23:40;16.52;;;2.80;;
63801;SDS011;49949;43.060;25.624;2023-02-18T18:26:06;5.60;;;2.00;;
63801;SDS011;49949;43.060;25.624;2023-02-18T18:28:46;8.90;;;2.88;;
63801;SDS011;49949;43.060;25.624;2023-02-18T18:31:54;7.95;;;2.30;;
63801;SDS011;49949;43.060;25.624;2023-02-18T18:34:21;19.35;;;2.60;;
63801;SDS011;49949;43.060;25.624;2023-02-18T18:36:47;9.07;;;3.40;;
63801;SDS011;49949;43.060;25.624;2023-02-18T18:39:16;6.40;;;2.50;;
63801;SDS011;49949;43.060;25.624;2023-02-18T18:41:45;5.53;;;3.10;;
63801;SDS011;49949;43.060;25.624;2023-02-18T18:44:20;13.90;;;2.33;;
63801;SDS011;49949;43.060;25.624;2023-02-18T18:46:46;6.60;;;2.67;;
63801;SDS011;49949;43.060;25.624;2023-02-18T18:49:23;21.77;;;5.68;;
63801;SDS011;49949;43.060;25.624;2023-02-18T18:51:50;29.83;;;11.75;;
63801;SDS011;49949;43.060;25.624;2023-02-18T18:54:20;5.10;;;2.90;;
63801;SDS011;49949;43.060;25.624;2023-02-18T18:56:50;50.55;;;14.75;;
63801;SDS011;49949;43.060;25.624;2023-02-18T18:59:17;48.85;;;18.45;;
63801;SDS011;49949;43.060;25.624;2023-02-18T19:02:15;29.67;;;9.73;;
63801;SDS011;49949;43.060;25.624;2023-02-18T19:04:42;36.10;;;12.45;;
63801;SDS011;49949;43.060;25.624;2023-02-18T19:07:10;31.77;;;14.38;;
63801;SDS011;49949;43.060;25.624;2023-02-18T19:09:40;34.10;;;15.93;;
63801;SDS011;49949;43.060;25.624;2023-02-18T19:12:08;35.60;;;12.13;;
63801;SDS011;49949;43.060;25.624;2023-02-18T19:14:34;20.13;;;10.52;;
63801;SDS011;49949;43.060;25.624;2023-02-18T19:17:00;29.45;;;10.57;;
63801;SDS011;49949;43.060;25.624;2023-02-18T19:19:31;18.50;;;10.43;;
63801;SDS011;49949;43.060;25.624;2023-02-18T19:21:57;23.45;;;9.80;;
63801;SDS011;49949;43.060;25.624;2023-02-18T19:24:24;18.92;;;9.32;;
63801;SDS011;49949;43.060;25.624;2023-02-18T19:26:51;20.30;;;8.13;;
63801;SDS011;49949;43.060;25.624;2023-02-18T19:29:17;12.27;;;6.13;;
63801;SDS011;49949;43.060;25.624;2023-02-18T19:31:44;72.50;;;11.30;;
63801;SDS011;49949;43.060;25.624;2023-02-18T19:34:11;25.00;;;9.27;;
63801;SDS011;49949;43.060;25.624;2023-02-18T19:36:38;112.05;;;13.90;;
63801;SDS011;49949;43.060;25.624;2023-02-18T19:42:40;40.78;;;6.95;;
63801;SDS011;49949;43.060;25.624;2023-02-18T19:45:12;43.47;;;8.10;;
63801;SDS011;49949;43.060;25.624;2023-02-18T19:47:40;45.60;;;8.90;;
63801;SDS011;49949;43.060;25.624;2023-02-18T19:50:06;48.03;;;8.23;;
63801;SDS011;49949;43.060;25.624;2023-02-18T19:52:33;25.00;;;7.88;;
63801;SDS011;49949;43.060;25.624;2023-02-18T19:55:01;35.50;;;7.53;;
63801;SDS011;49949;43.060;25.624;2023-02-18T19:57:38;32.35;;;7.60;;
63801;SDS011;49949;43.060;25.624;2023-02-18T20:00:10;20.67;;;7.82;;
63801;SDS011;49949;43.060;25.624;2023-02-18T20:02:38;16.40;;;7.28;;
63801;SDS011;49949;43.060;25.624;2023-02-18T20:05:04;20.33;;;6.93;;
63801;SDS011;49949;43.060;25.624;2023-02-18T20:07:32;14.65;;;6.03;;
63801;SDS011;49949;43.060;25.624;2023-02-18T20:10:12;12.55;;;5.13;;
63801;SDS011;49949;43.060;25.624;2023-02-18T20:12:53;16.42;;;5.85;;
63801;SDS011;49949;43.060;25.624;2023-02-18T20:15:19;12.60;;;5.38;;
63801;SDS011;49949;43.060;25.624;2023-02-18T20:17:46;16.95;;;6.28;;
63801;SDS011;49949;43.060;25.624;2023-02-18T20:20:14;8.98;;;4.97;;
63801;SDS011;49949;43.060;25.624;2023-02-18T20:22:40;20.17;;;6.28;;
63801;SDS011;49949;43.060;25.624;2023-02-18T20:25:11;23.63;;;8.38;;
63801;SDS011;49949;43.060;25.624;2023-02-18T20:27:41;21.17;;;8.20;;
63801;SDS011;49949;43.060;25.624;2023-02-18T20:30:15;24.67;;;6.78;;
63801;SDS011;49949;43.060;25.624;2023-02-18T20:32:41;29.77;;;10.13;;
63801;SDS011;49949;43.060;25.624;2023-02-18T20:35:07;23.95;;;9.10;;
63801;SDS011;49949;43.060;25.624;2023-02-18T20:37:35;24.73;;;9.30;;
63801;SDS011;49949;43.060;25.624;2023-02-18T20:40:02;25.35;;;9.07;;
63801;SDS011;49949;43.060;25.624;2023-02-18T20:42:31;22.38;;;9.43;;